sensor_id;sensor_type;location;lat;lon;timestamp;P1;durP1;ratioP1;P2;durP2;ratioP2
5491;SDS011;2768;53.540;10.224;2022-10-16T00:02:10;6.27;;;5.67;;
5491;SDS011;2768;53.540;10.224;2022-10-16T00:08:06;5.80;;;5.20;;
5491;SDS011;2768;53.540;10.224;2022-10-16T00:14:00;5.27;;;4.87;;
5491;SDS011;2768;53.540;10.224;2022-10-16T00:19:55;6.43;;;4.50;;
5491;SDS011;2768;53.540;10.224;2022-10-16T00:25:56;5.13;;;4.73;;
5491;SDS011;2768;53.540;10.224;2022-10-16T00:31:50;5.00;;;4.60;;
5491;SDS011;2768;53.540;10.224;2022-10-16T00:37:43;5.53;;;5.03;;
5491;SDS011;2768;53.540;10.224;2022-10-16T00:43:40;5.03;;;4.57;;
5491;SDS011;2768;53.540;10.224;2022-10-16T00:49:34;5.10;;;4.60;;
5491;SDS011;2768;53.540;10.224;2022-10-16T00:55:29;5.00;;;4.50;;
5491;SDS011;2768;53.540;10.224;2022-10-16T01:01:24;4.67;;;4.27;;
5491;SDS011;2768;53.540;10.224;2022-10-16T01:07:26;4.03;;;3.70;;
5491;SDS011;2768;53.540;10.224;2022-10-16T01:13:30;4.33;;;3.87;;
5491;SDS011;2768;53.540;10.224;2022-10-16T01:19:38;6.27;;;4.80;;
5491;SDS011;2768;53.540;10.224;2022-10-16T01:25:59;4.40;;;3.90;;
5491;SDS011;2768;53.540;10.224;2022-10-16T01:32:15;3.83;;;3.53;;
5491;SDS011;2768;53.540;10.224;2022-10-16T01:38:12;4.70;;;3.87;;
5491;SDS011;2768;53.540;10.224;2022-10-16T01:44:10;3.40;;;3.10;;
5491;SDS011;2768;53.540;10.224;2022-10-16T01:50:09;3.80;;;2.80;;
5491;SDS011;2768;53.540;10.224;2022-10-16T01:56:05;3.43;;;2.57;;
5491;SDS011;2768;53.540;10.224;2022-10-16T02:02:04;5.63;;;2.20;;
5491;SDS011;2768;53.540;10.224;2022-10-16T02:08:01;2.77;;;2.47;;
5491;SDS011;2768;53.540;10.224;2022-10-16T02:13:58;2.00;;;1.90;;
5491;SDS011;2768;53.540;10.224;2022-10-16T02:19:54;2.97;;;2.13;;
5491;SDS011;2768;53.540;10.224;2022-10-16T02:25:50;2.00;;;1.90;;
5491;SDS011;2768;53.540;10.224;2022-10-16T02:31:47;2.20;;;1.80;;
5491;SDS011;2768;53.540;10.224;2022-10-16T02:37:45;1.90;;;1.50;;
5491;SDS011;2768;53.540;10.224;2022-10-16T02:43:40;3.33;;;2.00;;
5491;SDS011;2768;53.540;10.224;2022-10-16T02:49:33;2.23;;;1.60;;
5491;SDS011;2768;53.540;10.224;2022-10-16T02:55:26;2.20;;;1.40;;
5491;SDS011;2768;53.540;10.224;2022-10-16T03:01:21;2.63;;;1.67;;
5491;SDS011;2768;53.540;10.224;2022-10-16T03:07:15;1.77;;;1.20;;
5491;SDS011;2768;53.540;10.224;2022-10-16T03:13:08;2.13;;;1.57;;
5491;SDS011;2768;53.540;10.224;2022-10-16T03:19:03;2.80;;;1.63;;
5491;SDS011;2768;53.540;10.224;2022-10-16T03:24:56;1.63;;;1.53;;
5491;SDS011;2768;53.540;10.224;2022-10-16T03:30:49;1.70;;;1.27;;
5491;SDS011;2768;53.540;10.224;2022-10-16T03:36:43;2.50;;;1.70;;
5491;SDS011;2768;53.540;10.224;2022-10-16T03:42:36;1.50;;;1.40;;
5491;SDS011;2768;53.540;10.224;2022-10-16T03:48:30;6.40;;;1.73;;
5491;SDS011;2768;53.540;10.224;2022-10-16T03:54:24;1.97;;;1.80;;
5491;SDS011;2768;53.540;10.224;2022-10-16T04:00:18;1.40;;;1.20;;
5491;SDS011;2768;53.540;10.224;2022-10-16T04:06:11;2.20;;;1.47;;
5491;SDS011;2768;53.540;10.224;2022-10-16T04:12:06;3.43;;;1.20;;
5491;SDS011;2768;53.540;10.224;2022-10-16T04:17:59;2.63;;;1.40;;
5491;SDS011;2768;53.540;10.224;2022-10-16T04:23:52;2.10;;;1.50;;
5491;SDS011;2768;53.540;10.224;2022-10-16T04:29:46;1.20;;;1.10;;
5491;SDS011;2768;53.540;10.224;2022-10-16T04:35:40;2.70;;;1.60;;
5491;SDS011;2768;53.540;10.224;2022-10-16T04:41:33;1.87;;;1.67;;
5491;SDS011;2768;53.540;10.224;2022-10-16T04:47:27;2.87;;;1.50;;
5491;SDS011;2768;53.540;10.224;2022-10-16T04:53:21;1.67;;;1.10;;
5491;SDS011;2768;53.540;10.224;2022-10-16T04:59:14;1.57;;;1.10;;
5491;SDS011;2768;53.540;10.224;2022-10-16T05:05:10;4.60;;;1.33;;
5491;SDS011;2768;53.540;10.224;2022-10-16T05:11:03;1.80;;;1.50;;
5491;SDS011;2768;53.540;10.224;2022-10-16T05:16:56;1.70;;;1.13;;
5491;SDS011;2768;53.540;10.224;2022-10-16T05:22:51;3.10;;;1.60;;
5491;SDS011;2768;53.540;10.224;2022-10-16T05:28:44;2.37;;;1.60;;
5491;SDS011;2768;53.540;10.224;2022-10-16T05:34:37;3.20;;;1.97;;
5491;SDS011;2768;53.540;10.224;2022-10-16T05:40:32;2.60;;;1.50;;
5491;SDS011;2768;53.540;10.224;2022-10-16T05:46:25;2.93;;;1.70;;
5491;SDS011;2768;53.540;10.224;2022-10-16T05:52:18;1.40;;;1.30;;
5491;SDS011;2768;53.540;10.224;2022-10-16T05:58:13;1.77;;;1.53;;
5491;SDS011;2768;53.540;10.224;2022-10-16T06:04:07;2.63;;;1.00;;
5491;SDS011;2768;53.540;10.224;2022-10-16T06:10:06;2.10;;;1.60;;
5491;SDS011;2768;53.540;10.224;2022-10-16T06:16:02;5.07;;;1.67;;
5491;SDS011;2768;53.540;10.224;2022-10-16T06:21:56;2.90;;;1.60;;
5491;SDS011;2768;53.540;10.224;2022-10-16T06:27:49;3.10;;;1.53;;
5491;SDS011;2768;53.540;10.224;2022-10-16T06:33:44;2.30;;;1.40;;
5491;SDS011;2768;53.540;10.224;2022-10-16T06:39:38;3.70;;;1.63;;
5491;SDS011;2768;53.540;10.224;2022-10-16T06:45:31;5.50;;;1.97;;
5491;SDS011;2768;53.540;10.224;2022-10-16T06:51:26;2.70;;;1.53;;
5491;SDS011;2768;53.540;10.224;2022-10-16T06:57:19;3.70;;;1.80;;
5491;SDS011;2768;53.540;10.224;2022-10-16T07:03:12;6.43;;;2.07;;
5491;SDS011;2768;53.540;10.224;2022-10-16T07:09:08;3.60;;;2.10;;
5491;SDS011;2768;53.540;10.224;2022-10-16T07:15:02;7.60;;;2.10;;
5491;SDS011;2768;53.540;10.224;2022-10-16T07:21:02;5.13;;;2.60;;
5491;SDS011;2768;53.540;10.224;2022-10-16T07:26:57;2.83;;;2.30;;
5491;SDS011;2768;53.540;10.224;2022-10-16T07:32:50;2.63;;;2.03;;
5491;SDS011;2768;53.540;10.224;2022-10-16T07:38:44;3.60;;;2.20;;
5491;SDS011;2768;53.540;10.224;2022-10-16T07:44:38;3.43;;;1.90;;
5491;SDS011;2768;53.540;10.224;2022-10-16T07:50:32;5.03;;;2.10;;
5491;SDS011;2768;53.540;10.224;2022-10-16T07:56:25;2.53;;;2.00;;
5491;SDS011;2768;53.540;10.224;2022-10-16T08:02:19;2.83;;;2.00;;
5491;SDS011;2768;53.540;10.224;2022-10-16T08:08:13;2.80;;;1.80;;
5491;SDS011;2768;53.540;10.224;2022-10-16T08:14:07;3.70;;;2.03;;
5491;SDS011;2768;53.540;10.224;2022-10-16T08:20:02;2.43;;;1.83;;
5491;SDS011;2768;53.540;10.224;2022-10-16T08:25:56;2.37;;;1.60;;
5491;SDS011;2768;53.540;10.224;2022-10-16T08:31:55;3.40;;;2.20;;
5491;SDS011;2768;53.540;10.224;2022-10-16T08:37:49;4.43;;;1.97;;
5491;SDS011;2768;53.540;10.224;2022-10-16T08:43:46;5.97;;;2.07;;
5491;SDS011;2768;53.540;10.224;2022-10-16T08:50:02;2.13;;;1.53;;
5491;SDS011;2768;53.540;10.224;2022-10-16T08:56:03;5.20;;;1.57;;
5491;SDS011;2768;53.540;10.224;2022-10-16T09:01:56;1.60;;;1.50;;
5491;SDS011;2768;53.540;10.224;2022-10-16T09:07:54;1.93;;;1.60;;
5491;SDS011;2768;53.540;10.224;2022-10-16T09:14:00;2.27;;;1.33;;
5491;SDS011;2768;53.540;10.224;2022-10-16T09:20:04;1.40;;;1.00;;
5491;SDS011;2768;53.540;10.224;2022-10-16T09:26:09;7.37;;;1.57;;
5491;SDS011;2768;53.540;10.224;2022-10-16T09:32:09;3.20;;;1.80;;
5491;SDS011;2768;53.540;10.224;2022-10-16T09:38:06;3.83;;;1.40;;
5491;SDS011;2768;53.540;10.224;2022-10-16T09:44:02;2.93;;;1.47;;
5491;SDS011;2768;53.540;10.224;2022-10-16T09:50:00;2.30;;;1.20;;
5491;SDS011;2768;53.540;10.224;2022-10-16T09:55:57;2.13;;;1.20;;
5491;SDS011;2768;53.540;10.224;2022-10-16T10:01:50;1.77;;;0.97;;
5491;SDS011;2768;53.540;10.224;2022-10-16T10:07:51;2.20;;;1.30;;
5491;SDS011;2768;53.540;10.224;2022-10-16T10:13:47;1.30;;;1.00;;
5491;SDS011;2768;53.540;10.224;2022-10-16T10:19:42;4.30;;;1.03;;
5491;SDS011;2768;53.540;10.224;2022-10-16T10:25:44;2.70;;;1.50;;
5491;SDS011;2768;53.540;10.224;2022-10-16T10:31:47;2.77;;;0.93;;
5491;SDS011;2768;53.540;10.224;2022-10-16T10:37:48;2.17;;;1.10;;
5491;SDS011;2768;53.540;10.224;2022-10-16T10:43:56;2.87;;;0.93;;
5491;SDS011;2768;53.540;10.224;2022-10-16T10:49:57;2.90;;;1.10;;
5491;SDS011;2768;53.540;10.224;2022-10-16T10:56:02;2.63;;;0.87;;
5491;SDS011;2768;53.540;10.224;2022-10-16T11:02:15;1.60;;;0.80;;
5491;SDS011;2768;53.540;10.224;2022-10-16T11:08:37;3.00;;;1.20;;
5491;SDS011;2768;53.540;10.224;2022-10-16T11:14:39;2.23;;;0.90;;
5491;SDS011;2768;53.540;10.224;2022-10-16T11:20:39;3.77;;;1.10;;
5491;SDS011;2768;53.540;10.224;2022-10-16T11:26:37;2.20;;;1.00;;
5491;SDS011;2768;53.540;10.224;2022-10-16T11:32:45;4.67;;;1.30;;
5491;SDS011;2768;53.540;10.224;2022-10-16T11:38:58;3.23;;;1.10;;
5491;SDS011;2768;53.540;10.224;2022-10-16T11:44:57;1.20;;;0.77;;
5491;SDS011;2768;53.540;10.224;2022-10-16T11:50:57;6.43;;;0.90;;
5491;SDS011;2768;53.540;10.224;2022-10-16T11:56:57;2.20;;;0.97;;
5491;SDS011;2768;53.540;10.224;2022-10-16T12:02:57;3.23;;;0.80;;
5491;SDS011;2768;53.540;10.224;2022-10-16T12:08:57;3.27;;;0.60;;
5491;SDS011;2768;53.540;10.224;2022-10-16T12:15:01;2.40;;;0.90;;
5491;SDS011;2768;53.540;10.224;2022-10-16T12:21:13;3.10;;;0.90;;
5491;SDS011;2768;53.540;10.224;2022-10-16T12:27:20;3.30;;;1.17;;
5491;SDS011;2768;53.540;10.224;2022-10-16T12:33:21;3.73;;;1.10;;
5491;SDS011;2768;53.540;10.224;2022-10-16T12:39:20;3.40;;;1.30;;
5491;SDS011;2768;53.540;10.224;2022-10-16T12:45:25;5.80;;;1.83;;
5491;SDS011;2768;53.540;10.224;2022-10-16T12:51:23;2.03;;;1.07;;
5491;SDS011;2768;53.540;10.224;2022-10-16T12:57:26;1.43;;;1.10;;
5491;SDS011;2768;53.540;10.224;2022-10-16T13:09:52;2.13;;;0.80;;
5491;SDS011;2768;53.540;10.224;2022-10-16T13:15:57;2.10;;;0.80;;
5491;SDS011;2768;53.540;10.224;2022-10-16T13:28:13;3.57;;;0.90;;
5491;SDS011;2768;53.540;10.224;2022-10-16T13:34:10;3.60;;;0.90;;
5491;SDS011;2768;53.540;10.224;2022-10-16T13:40:09;2.50;;;0.93;;
5491;SDS011;2768;53.540;10.224;2022-10-16T13:46:13;2.43;;;1.10;;
5491;SDS011;2768;53.540;10.224;2022-10-16T13:52:15;4.50;;;1.17;;
5491;SDS011;2768;53.540;10.224;2022-10-16T13:58:11;3.13;;;1.07;;
5491;SDS011;2768;53.540;10.224;2022-10-16T14:04:08;3.37;;;0.73;;
5491;SDS011;2768;53.540;10.224;2022-10-16T14:10:05;4.00;;;1.17;;
5491;SDS011;2768;53.540;10.224;2022-10-16T14:16:02;2.50;;;1.23;;
5491;SDS011;2768;53.540;10.224;2022-10-16T14:22:01;1.40;;;1.00;;
5491;SDS011;2768;53.540;10.224;2022-10-16T14:27:58;3.33;;;1.03;;
5491;SDS011;2768;53.540;10.224;2022-10-16T14:33:54;2.07;;;0.80;;
5491;SDS011;2768;53.540;10.224;2022-10-16T14:39:50;3.23;;;1.00;;
5491;SDS011;2768;53.540;10.224;2022-10-16T14:45:44;1.57;;;0.90;;
5491;SDS011;2768;53.540;10.224;2022-10-16T14:51:44;4.10;;;1.83;;
5491;SDS011;2768;53.540;10.224;2022-10-16T14:57:42;4.90;;;1.23;;
5491;SDS011;2768;53.540;10.224;2022-10-16T15:03:36;4.07;;;1.10;;
5491;SDS011;2768;53.540;10.224;2022-10-16T15:09:30;4.37;;;1.37;;
5491;SDS011;2768;53.540;10.224;2022-10-16T15:15:26;1.67;;;1.00;;
5491;SDS011;2768;53.540;10.224;2022-10-16T15:21:26;5.03;;;1.10;;
5491;SDS011;2768;53.540;10.224;2022-10-16T15:27:21;5.93;;;1.60;;
5491;SDS011;2768;53.540;10.224;2022-10-16T15:33:17;4.40;;;1.20;;
5491;SDS011;2768;53.540;10.224;2022-10-16T15:39:13;2.70;;;1.17;;
5491;SDS011;2768;53.540;10.224;2022-10-16T15:45:08;5.00;;;1.70;;
5491;SDS011;2768;53.540;10.224;2022-10-16T15:51:05;3.37;;;1.10;;
5491;SDS011;2768;53.540;10.224;2022-10-16T15:56:59;5.03;;;1.27;;
5491;SDS011;2768;53.540;10.224;2022-10-16T16:02:52;7.13;;;2.30;;
5491;SDS011;2768;53.540;10.224;2022-10-16T16:08:48;1.73;;;1.00;;
5491;SDS011;2768;53.540;10.224;2022-10-16T16:14:41;2.80;;;1.30;;
5491;SDS011;2768;53.540;10.224;2022-10-16T16:20:37;4.43;;;1.23;;
5491;SDS011;2768;53.540;10.224;2022-10-16T16:26:32;3.80;;;1.10;;
5491;SDS011;2768;53.540;10.224;2022-10-16T16:32:31;4.13;;;1.90;;
5491;SDS011;2768;53.540;10.224;2022-10-16T16:38:24;8.33;;;4.00;;
5491;SDS011;2768;53.540;10.224;2022-10-16T16:44:19;2.37;;;1.53;;
5491;SDS011;2768;53.540;10.224;2022-10-16T16:50:12;2.27;;;1.13;;
5491;SDS011;2768;53.540;10.224;2022-10-16T16:56:06;3.23;;;1.03;;
5491;SDS011;2768;53.540;10.224;2022-10-16T17:02:00;2.87;;;1.40;;
5491;SDS011;2768;53.540;10.224;2022-10-16T17:07:55;5.13;;;2.20;;
5491;SDS011;2768;53.540;10.224;2022-10-16T17:13:49;3.33;;;2.83;;
5491;SDS011;2768;53.540;10.224;2022-10-16T17:19:50;4.87;;;2.60;;
5491;SDS011;2768;53.540;10.224;2022-10-16T17:25:44;4.50;;;3.37;;
5491;SDS011;2768;53.540;10.224;2022-10-16T17:31:37;7.00;;;3.27;;
5491;SDS011;2768;53.540;10.224;2022-10-16T17:37:33;3.07;;;2.30;;
5491;SDS011;2768;53.540;10.224;2022-10-16T17:43:26;5.07;;;2.73;;
5491;SDS011;2768;53.540;10.224;2022-10-16T17:49:20;2.80;;;2.30;;
5491;SDS011;2768;53.540;10.224;2022-10-16T17:55:16;5.47;;;2.23;;
5491;SDS011;2768;53.540;10.224;2022-10-16T18:01:18;4.07;;;2.87;;
5491;SDS011;2768;53.540;10.224;2022-10-16T18:07:12;3.20;;;2.50;;
5491;SDS011;2768;53.540;10.224;2022-10-16T18:13:07;3.30;;;2.53;;
5491;SDS011;2768;53.540;10.224;2022-10-16T18:19:00;4.87;;;3.83;;
5491;SDS011;2768;53.540;10.224;2022-10-16T18:24:54;6.00;;;3.97;;
5491;SDS011;2768;53.540;10.224;2022-10-16T18:30:56;5.53;;;4.00;;
5491;SDS011;2768;53.540;10.224;2022-10-16T18:36:50;6.33;;;2.30;;
5491;SDS011;2768;53.540;10.224;2022-10-16T18:42:45;2.83;;;1.97;;
5491;SDS011;2768;53.540;10.224;2022-10-16T18:48:42;2.70;;;2.10;;
5491;SDS011;2768;53.540;10.224;2022-10-16T18:54:35;6.80;;;3.30;;
5491;SDS011;2768;53.540;10.224;2022-10-16T19:00:29;4.53;;;1.67;;
5491;SDS011;2768;53.540;10.224;2022-10-16T19:06:23;3.43;;;2.57;;
5491;SDS011;2768;53.540;10.224;2022-10-16T19:12:17;4.33;;;2.17;;
5491;SDS011;2768;53.540;10.224;2022-10-16T19:18:10;5.20;;;2.17;;
5491;SDS011;2768;53.540;10.224;2022-10-16T19:24:06;3.50;;;2.17;;
5491;SDS011;2768;53.540;10.224;2022-10-16T19:30:00;3.20;;;2.60;;
5491;SDS011;2768;53.540;10.224;2022-10-16T19:35:53;2.33;;;2.13;;
5491;SDS011;2768;53.540;10.224;2022-10-16T19:41:48;4.20;;;2.80;;
5491;SDS011;2768;53.540;10.224;2022-10-16T19:47:42;2.63;;;2.43;;
5491;SDS011;2768;53.540;10.224;2022-10-16T19:53:36;5.73;;;2.67;;
5491;SDS011;2768;53.540;10.224;2022-10-16T19:59:31;5.70;;;3.50;;
5491;SDS011;2768;53.540;10.224;2022-10-16T20:05:24;4.40;;;2.53;;
5491;SDS011;2768;53.540;10.224;2022-10-16T20:11:18;4.33;;;3.07;;
5491;SDS011;2768;53.540;10.224;2022-10-16T20:17:14;5.37;;;2.53;;
5491;SDS011;2768;53.540;10.224;2022-10-16T20:23:07;4.77;;;2.80;;
5491;SDS011;2768;53.540;10.224;2022-10-16T20:29:01;3.50;;;2.97;;
5491;SDS011;2768;53.540;10.224;2022-10-16T20:34:57;3.93;;;2.73;;
5491;SDS011;2768;53.540;10.224;2022-10-16T20:40:54;3.90;;;2.93;;
5491;SDS011;2768;53.540;10.224;2022-10-16T20:46:47;2.73;;;2.47;;
5491;SDS011;2768;53.540;10.224;2022-10-16T20:52:42;5.20;;;3.00;;
5491;SDS011;2768;53.540;10.224;2022-10-16T20:58:35;5.77;;;2.83;;
5491;SDS011;2768;53.540;10.224;2022-10-16T21:04:28;5.33;;;3.00;;
5491;SDS011;2768;53.540;10.224;2022-10-16T21:10:23;4.30;;;2.80;;
5491;SDS011;2768;53.540;10.224;2022-10-16T21:16:16;3.97;;;2.50;;
5491;SDS011;2768;53.540;10.224;2022-10-16T21:22:09;5.23;;;3.23;;
5491;SDS011;2768;53.540;10.224;2022-10-16T21:28:04;2.57;;;2.27;;
5491;SDS011;2768;53.540;10.224;2022-10-16T21:33:57;4.63;;;2.60;;
5491;SDS011;2768;53.540;10.224;2022-10-16T21:39:53;4.03;;;2.60;;
5491;SDS011;2768;53.540;10.224;2022-10-16T21:45:48;4.50;;;2.47;;
5491;SDS011;2768;53.540;10.224;2022-10-16T21:51:42;4.03;;;2.30;;
5491;SDS011;2768;53.540;10.224;2022-10-16T21:57:36;3.63;;;2.47;;
5491;SDS011;2768;53.540;10.224;2022-10-16T22:03:31;5.40;;;2.50;;
5491;SDS011;2768;53.540;10.224;2022-10-16T22:09:24;5.47;;;2.40;;
5491;SDS011;2768;53.540;10.224;2022-10-16T22:15:18;8.13;;;2.17;;
5491;SDS011;2768;53.540;10.224;2022-10-16T22:21:13;3.57;;;2.20;;
5491;SDS011;2768;53.540;10.224;2022-10-16T22:27:05;1.93;;;1.70;;
5491;SDS011;2768;53.540;10.224;2022-10-16T22:32:59;9.70;;;2.20;;
5491;SDS011;2768;53.540;10.224;2022-10-16T22:38:53;3.27;;;1.40;;
5491;SDS011;2768;53.540;10.224;2022-10-16T22:44:47;4.93;;;1.70;;
5491;SDS011;2768;53.540;10.224;2022-10-16T22:50:40;4.20;;;2.03;;
5491;SDS011;2768;53.540;10.224;2022-10-16T22:56:34;3.13;;;1.83;;
5491;SDS011;2768;53.540;10.224;2022-10-16T23:02:28;2.20;;;1.97;;
5491;SDS011;2768;53.540;10.224;2022-10-16T23:08:21;3.20;;;2.00;;
5491;SDS011;2768;53.540;10.224;2022-10-16T23:14:19;3.00;;;1.90;;
5491;SDS011;2768;53.540;10.224;2022-10-16T23:20:12;5.17;;;1.77;;
5491;SDS011;2768;53.540;10.224;2022-10-16T23:26:07;4.17;;;2.20;;
5491;SDS011;2768;53.540;10.224;2022-10-16T23:32:03;3.23;;;1.60;;
5491;SDS011;2768;53.540;10.224;2022-10-16T23:37:56;2.83;;;2.10;;
5491;SDS011;2768;53.540;10.224;2022-10-16T23:43:49;1.90;;;1.70;;
5491;SDS011;2768;53.540;10.224;2022-10-16T23:49:44;3.30;;;2.13;;
5491;SDS011;2768;53.540;10.224;2022-10-16T23:55:37;3.10;;;2.23;;
